Royalton, New York
Current Conditions -  °F | °C
As of 7:08 PM on Thursday 18 Dec 2014 (Local Time) from KBUF Reporting Station
Freezing Drizzle Freezing Drizzle  
Wind Chill: 21°   Ceiling: 1700
Heat Index: 30°   Visibility: 5mi
Dew Point: 26°   Wind: 12mph
Humidity: 85%   Direction: 290°WNW
Pressure: 30.09"   Gusts: NA
Location:  43.1953°N, 78.4825°W
Report Text: KBUF 190008Z 29010KT 5SM -FZDZ FEW008 BKN017 OVC022 M01/M03 A3009 RMK AO2 P0000 I1000 T10111033
Loading
Personal Weather Stations






























Interactive Weather Map New forecast layout! Learn more

10-Day Weather Forecast

Advertisements
Track Severe Weather on mobile